Elizabeth City, NC

2:53 AM EDT on September 04, 2015 (GMT -0400)
Forest Park | | Change Station
CLOSE
Current Station
Personal Weather Station
Location: Elizabeth City, NC
Elevation: 46 ft
Nearby Weather Stations

Elev 46 ft 36.30 °N, 76.27 °W | Updated 9 seconds ago

Clear
Clear
71.3 °F
Feels Like 71.3 °F
N
0.0
Wind Variable Wind from East
Gusts 0.0 mph

Today
High -- | Low -- °F
--% Chance of Precip.
Yesterday
High -- | Low -- °F
Precip. -- in
6:38 AM 7:28 PM
Waning Gibbous, 62% visible
Pressure 29.89 in
Visibility 9.0 miles
Clouds Clear
Dew Point 70 °F
Humidity 98%
Rainfall 0.00 in
Snow Depth Not available.
UV 0 out of 12
Pollen 9.50 out of 12
Air Quality Not available.
Flu Activity Not available.
METAR KECG 040554Z AUTO 00000KT 9SM CLR 23/22 A2989 RMK AO2 SLP121 T02280217 10244 20211 58003
Pressure 29.89 in
Visibility 9.0 miles
Clouds Clear
Dew Point 70 °F
Humidity 98%
Rainfall 0.00 in
Snow Depth Not available.
UV 0 out of 12
Pollen 9.50 out of 12
Air Quality Not available.
Flu Activity Not available.
METAR KECG 040554Z AUTO 00000KT 9SM CLR 23/22 A2989 RMK AO2 SLP121 T02280217 10244 20211 58003

10-Day Weather Forecast

×

Almanac

Astronomy

Sep. 04, 2015 Rise Set
Actual Time
Civil Twilight
Nautical Twilight
Astronomical Twilight
Moon
Length of Visible Light
Length of Day
Tomorrow will be .
, % of the Moon is Illuminated

Today's Extremes

State Highs State Lows

Community

WunderPhotos

Upload Photos

1,852,132 photos uploaded!

WunderBlogs® & News

Nearby

Air Quality

  Air Quality AQ Index Pollutant
Not available.

Snow Depth

Station Depth Elevation

Earthquake Activity

City Distance Mag. Time & Date
Minimum magnitude displayed is 2.5.

Coastal Water Temperatures

Place Temperature

Stations

Nearby Weather Stations

Station Location Temp. Windchill Dew Point Humidity Wind Precip. Elev Updated Type